Atlanta, Georgia
Traffic Map
Current Weather Conditions
Atlanta, Georgia
Scattered Clouds
Scattered Clouds
65°
Feels Like: 65°
Wind Chill: 65° Ceiling: Unl
Heat Index: 65° Visibility: 10mi
Dew Point: 55° Wind: 7mph
Humidity: 70% Direction: 90° (E)
Pressure: 30.06in Gusts: 0mph
Raw Report DataKATL 291252Z 09006KT 10SM SCT200 SCT250 18/13 A3006 RMK AO2 SLP171 T01830128
Traffic Incident Summary
Active as of:
Severity:
Category:
InformationThere was an issue retrieving the traffic information for this location. Please try a different location or try again shortly.
Advertisements
Track Severe Weather on mobile